^^
Grace C. Lehan Memorial Weather Station Historical Data
Daily Summary for November 8, 2021 Units:  Both    English   Metric
Daily Weekly Monthly Yearly
  High: Low: Average:
Temperature: 64.1 °F /  17.8 °C 35.2 °F /  1.8 °C 48.6 °F /  9.2 °C
Dew Point: 45.5 °F /  7.5 °C 31.7 °F /  -0.2 °C 39 °F /  3.9 °C
Humidity: 89.4% 43% 72%
Wind Speed: 2.6mph /  4.2km/h - 0.3mph /  0.5km/h
Wind Gust: 11mph /  17.7km/h - -
Wind- - East
Pressure: 30.14 in /  1020.5 hPa 30.04 in /  1017.2 hPa -
Precipitation: 0.00 in /  0 mm    
 
 
Tabular Data for November 8, 2021
Time Temperature Dew Point Pressure Wind Wind Speed Wind Gust Humidity Rainfall Rate (Hourly) solar
00:04 39.1 °F /  3.9 °C 34.3 °F /  1.3 °C 30.08in /  1018.5hPa Calm     82.9% 0.00in /  0mm 0 W/m2
00:09 38.9 °F /  3.8 °C 34.2 °F /  1.2 °C 30.08in /  1018.5hPa Calm     83% 0.00in /  0mm 0 W/m2
00:14 38.7 °F /  3.7 °C 34.2 °F /  1.2 °C 30.08in /  1018.5hPa Calm     83.7% 0.00in /  0mm 0 W/m2
00:19 38.6 °F /  3.7 °C 34.2 °F /  1.2 °C 30.07in /  1018.2hPa Calm     84% 0.00in /  0mm 0 W/m2
00:24 38.4 °F /  3.6 °C 34.3 °F /  1.3 °C 30.07in /  1018.2hPa Calm     84.8% 0.00in /  0mm 0 W/m2
00:29 38.4 °F /  3.6 °C 34.3 °F /  1.3 °C 30.07in /  1018.2hPa Calm     85% 0.00in /  0mm 0 W/m2
00:34 38.4 °F /  3.6 °C 34.3 °F /  1.3 °C 30.07in /  1018.2hPa Calm     85% 0.00in /  0mm 0 W/m2
00:39 38.3 °F /  3.5 °C 34.2 °F /  1.2 °C 30.06in /  1017.8hPa Calm     85% 0.00in /  0mm 0 W/m2
00:44 38.2 °F /  3.4 °C 34.1 °F /  1.2 °C 30.06in /  1017.8hPa Calm     85% 0.00in /  0mm 0 W/m2
00:49 38.2 °F /  3.4 °C 34.1 °F /  1.2 °C 30.07in /  1018.2hPa Calm     85% 0.00in /  0mm 0 W/m2
00:54 38.2 °F /  3.4 °C 34.3 °F /  1.3 °C 30.07in /  1018.2hPa Calm     85.8% 0.00in /  0mm 0 W/m2
00:59 38.1 °F /  3.4 °C 34.3 °F /  1.3 °C 30.07in /  1018.2hPa Calm     86% 0.00in /  0mm 0 W/m2
01:04 38 °F /  3.3 °C 33.9 °F /  1.1 °C 30.07in /  1018.2hPa Calm     85% 0.00in /  0mm 0 W/m2
01:09 38 °F /  3.3 °C 33.9 °F /  1.1 °C 30.07in /  1018.2hPa Calm     85% 0.00in /  0mm 0 W/m2
01:14 38 °F /  3.3 °C 33.9 °F /  1.1 °C 30.07in /  1018.2hPa Calm     85% 0.00in /  0mm 0 W/m2
01:19 38 °F /  3.3 °C 33.9 °F /  1.1 °C 30.07in /  1018.2hPa Calm     85% 0.00in /  0mm 0 W/m2
01:24 38 °F /  3.3 °C 33.9 °F /  1.1 °C 30.07in /  1018.2hPa Calm     85% 0.00in /  0mm 0 W/m2
01:29 38 °F /  3.3 °C 33.9 °F /  1.1 °C 30.07in /  1018.2hPa ENE 0.1mph /  0.2km/h 1mph /  1.6km/h 85% 0.00in /  0mm 0 W/m2
01:34 37.9 °F /  3.3 °C 33.8 °F /  1 °C 30.07in /  1018.2hPa ENE 0.3mph /  0.5km/h 3mph /  4.8km/h 85% 0.00in /  0mm 0 W/m2
01:39 37.8 °F /  3.2 °C 33.7 °F /  0.9 °C 30.06in /  1017.8hPa ENE 0.5mph /  0.8km/h 3mph /  4.8km/h 85% 0.00in /  0mm 0 W/m2
01:44 37.8 °F /  3.2 °C 33.7 °F /  0.9 °C 30.07in /  1018.2hPa Calm   3mph /  4.8km/h 85% 0.00in /  0mm 0 W/m2
01:49 37.8 °F /  3.2 °C 33.7 °F /  0.9 °C 30.06in /  1017.8hPa ENE 0.5mph /  0.8km/h 3mph /  4.8km/h 85% 0.00in /  0mm 0 W/m2
01:54 37.9 °F /  3.3 °C 33.8 °F /  1 °C 30.05in /  1017.5hPa ENE 0.2mph /  0.3km/h 3mph /  4.8km/h 85% 0.00in /  0mm 0 W/m2
01:59 38 °F /  3.3 °C 33.9 °F /  1.1 °C 30.05in /  1017.5hPa ENE 0.2mph /  0.3km/h 3mph /  4.8km/h 85% 0.00in /  0mm 0 W/m2
02:04 38.1 °F /  3.4 °C 33.7 °F /  0.9 °C 30.05in /  1017.5hPa NE 0.1mph /  0.2km/h 3mph /  4.8km/h 84.2% 0.00in /  0mm 0 W/m2
02:09 38.2 °F /  3.4 °C 33.8 °F /  1 °C 30.05in /  1017.5hPa Calm   2mph /  3.2km/h 84% 0.00in /  0mm 0 W/m2
02:14 38.2 °F /  3.4 °C 33.7 °F /  0.9 °C 30.05in /  1017.5hPa Calm   2mph /  3.2km/h 83.6% 0.00in /  0mm 0 W/m2
02:19 38.3 °F /  3.5 °C 33.6 °F /  0.9 °C 30.05in /  1017.5hPa Calm   2mph /  3.2km/h 83% 0.00in /  0mm 0 W/m2
02:24 38.4 °F /  3.6 °C 33.7 °F /  0.9 °C 30.05in /  1017.5hPa Calm   2mph /  3.2km/h 83% 0.00in /  0mm 0 W/m2
02:29 38.4 °F /  3.6 °C 33.7 °F /  0.9 °C 30.05in /  1017.5hPa Calm   2mph /  3.2km/h 83% 0.00in /  0mm 0 W/m2
02:34 38.3 °F /  3.5 °C 33.6 °F /  0.9 °C 30.04in /  1017.2hPa Calm   2mph /  3.2km/h 83% 0.00in /  0mm 0 W/m2
02:39 38.3 °F /  3.5 °C 33.6 °F /  0.9 °C 30.04in /  1017.2hPa Calm     83% 0.00in /  0mm 0 W/m2
02:44 38.3 °F /  3.5 °C 33.6 °F /  0.9 °C 30.05in /  1017.5hPa Calm     82.7% 0.00in /  0mm 0 W/m2
02:49 38.4 °F /  3.6 °C 33.4 °F /  0.8 °C 30.05in /  1017.5hPa Calm     82% 0.00in /  0mm 0 W/m2
02:53 38.4 °F /  3.6 °C 33.4 °F /  0.8 °C 30.05in /  1017.5hPa Calm     82% 0.00in /  0mm 0 W/m2
02:59 38.3 °F /  3.5 °C 33.3 °F /  0.7 °C 30.05in /  1017.5hPa Calm     82% 0.00in /  0mm 0 W/m2
03:04 38.3 °F /  3.5 °C 33.5 °F /  0.8 °C 30.05in /  1017.5hPa Calm     82.5% 0.00in /  0mm 0 W/m2
03:09 38.3 °F /  3.5 °C 33.3 °F /  0.7 °C 30.05in /  1017.5hPa Calm     82.2% 0.00in /  0mm 0 W/m2
03:14 38.3 °F /  3.5 °C 33.6 °F /  0.9 °C 30.05in /  1017.5hPa Calm     83% 0.00in /  0mm 0 W/m2
03:19 38.3 °F /  3.5 °C 33.6 °F /  0.9 °C 30.05in /  1017.5hPa NE 0.1mph /  0.2km/h 1mph /  1.6km/h 83% 0.00in /  0mm 0 W/m2
03:24 38.3 °F /  3.5 °C 33.5 °F /  0.8 °C 30.05in /  1017.5hPa Calm   1mph /  1.6km/h 82.6% 0.00in /  0mm 0 W/m2
03:29 38.3 °F /  3.5 °C 33.3 °F /  0.7 °C 30.05in /  1017.5hPa Calm   1mph /  1.6km/h 82% 0.00in /  0mm 0 W/m2
03:34 38.3 °F /  3.5 °C 33.3 °F /  0.7 °C 30.05in /  1017.5hPa Calm   1mph /  1.6km/h 82% 0.00in /  0mm 0 W/m2
03:39 38.3 °F /  3.5 °C 33.3 °F /  0.7 °C 30.05in /  1017.5hPa Calm     82% 0.00in /  0mm 0 W/m2
03:44 38.3 °F /  3.5 °C 33.3 °F /  0.7 °C 30.05in /  1017.5hPa Calm     82% 0.00in /  0mm 0 W/m2
03:49 38.2 °F /  3.4 °C 33.2 °F /  0.7 °C 30.06in /  1017.8hPa Calm     82% 0.00in /  0mm 0 W/m2
03:54 38.1 °F /  3.4 °C 33.1 °F /  0.6 °C 30.06in /  1017.8hPa NE 0.1mph /  0.2km/h 2mph /  3.2km/h 82% 0.00in /  0mm 0 W/m2
03:59 38.1 °F /  3.4 °C 33.1 °F /  0.6 °C 30.06in /  1017.8hPa NE 0.1mph /  0.2km/h 2mph /  3.2km/h 82% 0.00in /  0mm 0 W/m2
04:09 38.1 °F /  3.4 °C 33.1 °F /  0.6 °C 30.06in /  1017.8hPa Calm     82% 0.00in /  0mm 0 W/m2
04:14 38 °F /  3.3 °C 33 °F /  0.6 °C 30.07in /  1018.2hPa Calm     81.9% 0.00in /  0mm 0 W/m2
04:19 37.9 °F /  3.3 °C 32.9 °F /  0.5 °C 30.07in /  1018.2hPa Calm     82% 0.00in /  0mm 0 W/m2
04:24 37.8 °F /  3.2 °C 32.8 °F /  0.4 °C 30.07in /  1018.2hPa Calm   1mph /  1.6km/h 82% 0.00in /  0mm 0 W/m2
04:29 37.7 °F /  3.2 °C 32.7 °F /  0.4 °C 30.07in /  1018.2hPa Calm   1mph /  1.6km/h 82% 0.00in /  0mm 0 W/m2
04:34 37.5 °F /  3.1 °C 32.6 °F /  0.3 °C 30.07in /  1018.2hPa Calm   1mph /  1.6km/h 82% 0.00in /  0mm 0 W/m2
04:39 37.5 °F /  3.1 °C 32.7 °F /  0.4 °C 30.07in /  1018.2hPa Calm     82.9% 0.00in /  0mm 0 W/m2
04:44 37.3 °F /  2.9 °C 32.6 °F /  0.3 °C 30.08in /  1018.5hPa Calm     83% 0.00in /  0mm 0 W/m2
04:49 37.2 °F /  2.9 °C 32.5 °F /  0.3 °C 30.08in /  1018.5hPa Calm     83% 0.00in /  0mm 0 W/m2
04:54 37.1 °F /  2.8 °C 32.4 °F /  0.2 °C 30.08in /  1018.5hPa Calm   1mph /  1.6km/h 83% 0.00in /  0mm 0 W/m2
04:59 37 °F /  2.8 °C 32.5 °F /  0.3 °C 30.08in /  1018.5hPa NE 0.1mph /  0.2km/h 2mph /  3.2km/h 83.6% 0.00in /  0mm 0 W/m2
05:04 36.8 °F /  2.7 °C 32.4 °F /  0.2 °C 30.08in /  1018.5hPa Calm   2mph /  3.2km/h 84% 0.00in /  0mm 0 W/m2
05:09 36.5 °F /  2.5 °C 32.2 °F /  0.1 °C 30.08in /  1018.5hPa Calm   1mph /  1.6km/h 84.1% 0.00in /  0mm 0 W/m2
05:14 36.4 °F /  2.4 °C 32.3 °F /  0.2 °C 30.08in /  1018.5hPa Calm   1mph /  1.6km/h 85% 0.00in /  0mm 0 W/m2
05:19 36.2 °F /  2.3 °C 32.1 °F /  0.1 °C 30.08in /  1018.5hPa NE 0.1mph /  0.2km/h 2mph /  3.2km/h 85% 0.00in /  0mm 0 W/m2
05:24 36.1 °F /  2.3 °C 32 °F /  0 °C 30.08in /  1018.5hPa Calm   2mph /  3.2km/h 85% 0.00in /  0mm 0 W/m2
05:29 36 °F /  2.2 °C 32.1 °F /  0.1 °C 30.08in /  1018.5hPa NE 0.1mph /  0.2km/h 2mph /  3.2km/h 85.7% 0.00in /  0mm 0 W/m2
05:34 35.9 °F /  2.2 °C 32.1 °F /  0.1 °C 30.09in /  1018.8hPa Calm   2mph /  3.2km/h 86% 0.00in /  0mm 0 W/m2
05:39 35.8 °F /  2.1 °C 32 °F /  0 °C 30.09in /  1018.8hPa Calm   2mph /  3.2km/h 86% 0.00in /  0mm 0 W/m2
05:44 35.7 °F /  2.1 °C 31.9 °F /  -0.1 °C 30.09in /  1018.8hPa Calm   2mph /  3.2km/h 86% 0.00in /  0mm 0 W/m2
05:49 35.7 °F /  2.1 °C 31.9 °F /  -0.1 °C 30.09in /  1018.8hPa Calm   2mph /  3.2km/h 86% 0.00in /  0mm 0 W/m2
05:54 35.7 °F /  2.1 °C 31.9 °F /  -0.1 °C 30.09in /  1018.8hPa Calm   2mph /  3.2km/h 86% 0.00in /  0mm 0 W/m2
05:59 35.7 °F /  2.1 °C 31.9 °F /  -0.1 °C 30.09in /  1018.8hPa Calm   2mph /  3.2km/h 86% 0.00in /  0mm 0 W/m2
06:04 35.7 °F /  2.1 °C 32 °F /  0 °C 30.09in /  1018.8hPa Calm   2mph /  3.2km/h 86% 0.00in /  0mm 0 W/m2
06:09 35.7 °F /  2.1 °C 31.9 °F /  -0.1 °C 30.09in /  1018.8hPa Calm     86% 0.00in /  0mm 0 W/m2
06:14 35.7 °F /  2.1 °C 31.9 °F /  -0.1 °C 30.09in /  1018.8hPa Calm     86% 0.00in /  0mm 0 W/m2
06:19 35.7 °F /  2.1 °C 31.9 °F /  -0.1 °C 30.10in /  1019.2hPa Calm     86% 0.00in /  0mm 0 W/m2
06:24 35.6 °F /  2 °C 31.9 °F /  -0.1 °C 30.10in /  1019.2hPa Calm     86% 0.00in /  0mm 0 W/m2
06:29 35.6 °F /  2 °C 31.8 °F /  -0.1 °C 30.11in /  1019.5hPa Calm     86% 0.00in /  0mm 0 W/m2
06:34 35.5 °F /  1.9 °C 31.7 °F /  -0.2 °C 30.11in /  1019.5hPa Calm     86% 0.00in /  0mm 0 W/m2
06:39 35.5 °F /  1.9 °C 31.7 °F /  -0.2 °C 30.11in /  1019.5hPa Calm     86% 0.00in /  0mm 0 W/m2
06:44 35.4 °F /  1.9 °C 31.7 °F /  -0.2 °C 30.11in /  1019.5hPa Calm     86.3% 0.00in /  0mm 5 W/m2
06:49 35.3 °F /  1.8 °C 31.8 °F /  -0.1 °C 30.11in /  1019.5hPa Calm     87% 0.00in /  0mm 9 W/m2
06:54 35.2 °F /  1.8 °C 32.4 °F /  0.2 °C 30.11in /  1019.5hPa Calm     89.4% 0.00in /  0mm 21 W/m2
06:59 35.2 °F /  1.8 °C 31.7 °F /  -0.2 °C 30.11in /  1019.5hPa Calm     87% 0.00in /  0mm 32 W/m2
07:04 35.3 °F /  1.8 °C 31.9 °F /  -0.1 °C 30.11in /  1019.5hPa Calm     87.2% 0.00in /  0mm 33 W/m2
07:09 35.6 °F /  2 °C 32.4 °F /  0.2 °C 30.12in /  1019.9hPa Calm     88% 0.00in /  0mm 30 W/m2
07:14 35.9 °F /  2.2 °C 32.7 °F /  0.4 °C 30.12in /  1019.9hPa Calm     88% 0.00in /  0mm 33 W/m2
07:19 36.1 °F /  2.3 °C 32.9 °F /  0.5 °C 30.13in /  1020.2hPa Calm     88% 0.00in /  0mm 26 W/m2
07:24 36.3 °F /  2.4 °C 32.9 °F /  0.5 °C 30.13in /  1020.2hPa Calm     87.4% 0.00in /  0mm 32 W/m2
07:29 36.4 °F /  2.4 °C 33 °F /  0.6 °C 30.13in /  1020.2hPa Calm     87% 0.00in /  0mm 35 W/m2
07:34 36.6 °F /  2.6 °C 33.1 °F /  0.6 °C 30.13in /  1020.2hPa Calm     87% 0.00in /  0mm 53 W/m2
07:39 36.9 °F /  2.7 °C 33.3 °F /  0.7 °C 30.13in /  1020.2hPa Calm     86.8% 0.00in /  0mm 56 W/m2
07:44 37.1 °F /  2.8 °C 33.3 °F /  0.7 °C 30.13in /  1020.2hPa Calm     86% 0.00in /  0mm 51 W/m2
07:49 37.5 °F /  3.1 °C 33.7 °F /  0.9 °C 30.13in /  1020.2hPa Calm   1mph /  1.6km/h 86% 0.00in /  0mm 60 W/m2
07:54 38 °F /  3.3 °C 33.8 °F /  1 °C 30.13in /  1020.2hPa NE 0.1mph /  0.2km/h 2mph /  3.2km/h 84.6% 0.00in /  0mm 76 W/m2
07:59 38.7 °F /  3.7 °C 34.1 °F /  1.2 °C 30.13in /  1020.2hPa Calm   2mph /  3.2km/h 83.4% 0.00in /  0mm 193 W/m2
08:09 40.6 °F /  4.8 °C 34.9 °F /  1.6 °C 30.13in /  1020.2hPa NE 0.5mph /  0.8km/h 4mph /  6.4km/h 80.2% 0.00in /  0mm 236 W/m2
08:14 41.5 °F /  5.3 °C 35.4 °F /  1.9 °C 30.13in /  1020.2hPa NE 0.4mph /  0.6km/h 4mph /  6.4km/h 78.6% 0.00in /  0mm 274 W/m2
08:19 42.8 °F /  6 °C 35.8 °F /  2.1 °C 30.14in /  1020.5hPa NE 0.4mph /  0.6km/h 4mph /  6.4km/h 76.1% 0.00in /  0mm 290 W/m2
08:24 44.1 °F /  6.7 °C 35.9 °F /  2.2 °C 30.13in /  1020.2hPa NE 0.2mph /  0.3km/h 4mph /  6.4km/h 72.7% 0.00in /  0mm 304 W/m2
08:29 45.2 °F /  7.3 °C 36.2 °F /  2.3 °C 30.13in /  1020.2hPa Calm   4mph /  6.4km/h 70.4% 0.00in /  0mm 318 W/m2
08:34 46.3 °F /  7.9 °C 36.6 °F /  2.6 °C 30.13in /  1020.2hPa NE 0.2mph /  0.3km/h 4mph /  6.4km/h 68.7% 0.00in /  0mm 330 W/m2
08:39 47.3 °F /  8.5 °C 36.8 °F /  2.7 °C 30.13in /  1020.2hPa NE 0.3mph /  0.5km/h 3mph /  4.8km/h 66.8% 0.00in /  0mm 339 W/m2
08:44 48.1 °F /  8.9 °C 37 °F /  2.8 °C 30.13in /  1020.2hPa NNE 0.4mph /  0.6km/h 4mph /  6.4km/h 65.3% 0.00in /  0mm 352 W/m2
08:49 48.8 °F /  9.3 °C 37 °F /  2.8 °C 30.13in /  1020.2hPa NNE 0.2mph /  0.3km/h 4mph /  6.4km/h 63.6% 0.00in /  0mm 360 W/m2
08:54 49.3 °F /  9.6 °C 37.1 °F /  2.8 °C 30.13in /  1020.2hPa NNE 0.5mph /  0.8km/h 4mph /  6.4km/h 62.5% 0.00in /  0mm 371 W/m2
08:59 49.8 °F /  9.9 °C 37.1 °F /  2.8 °C 30.12in /  1019.9hPa Calm   4mph /  6.4km/h 61.4% 0.00in /  0mm 380 W/m2
09:04 50.3 °F /  10.2 °C 36.9 °F /  2.7 °C 30.13in /  1020.2hPa NNE 0.4mph /  0.6km/h 4mph /  6.4km/h 59.9% 0.00in /  0mm 394 W/m2
09:09 50.7 °F /  10.4 °C 37 °F /  2.8 °C 30.13in /  1020.2hPa NNE 0.9mph /  1.4km/h 3mph /  4.8km/h 59.4% 0.00in /  0mm 399 W/m2
09:14 51.1 °F /  10.6 °C 37.3 °F /  2.9 °C 30.13in /  1020.2hPa NNE 1mph /  1.6km/h 5mph /  8km/h 59% 0.00in /  0mm 374 W/m2
09:19 51.4 °F /  10.8 °C 37.3 °F /  2.9 °C 30.13in /  1020.2hPa NNE 1.2mph /  1.9km/h 5mph /  8km/h 58.5% 0.00in /  0mm 396 W/m2
09:24 51.3 °F /  10.7 °C 37.3 °F /  2.9 °C 30.13in /  1020.2hPa NE 0.9mph /  1.4km/h 5mph /  8km/h 58.5% 0.00in /  0mm 371 W/m2
09:29 51.3 °F /  10.7 °C 37 °F /  2.8 °C 30.13in /  1020.2hPa NE 1.8mph /  2.9km/h 6mph /  9.7km/h 58% 0.00in /  0mm 396 W/m2
09:34 51.2 °F /  10.7 °C 37.3 °F /  2.9 °C 30.13in /  1020.2hPa NE 0.6mph /  1km/h 6mph /  9.7km/h 58.8% 0.00in /  0mm 292 W/m2
09:39 51.2 °F /  10.7 °C 37.4 °F /  3 °C 30.13in /  1020.2hPa NE 0.5mph /  0.8km/h 4mph /  6.4km/h 59% 0.00in /  0mm 283 W/m2
09:44 51.2 °F /  10.7 °C 37.3 °F /  2.9 °C 30.13in /  1020.2hPa NNE 0.4mph /  0.6km/h 4mph /  6.4km/h 58.7% 0.00in /  0mm 220 W/m2
09:49 51.3 °F /  10.7 °C 37.5 °F /  3.1 °C 30.14in /  1020.5hPa NNE 0.3mph /  0.5km/h 4mph /  6.4km/h 59% 0.00in /  0mm 214 W/m2
09:54 51.5 °F /  10.8 °C 38 °F /  3.3 °C 30.14in /  1020.5hPa NNW 1mph /  1.6km/h 7mph /  11.3km/h 59.6% 0.00in /  0mm 341 W/m2
09:59 52 °F /  11.1 °C 38.2 °F /  3.4 °C 30.13in /  1020.2hPa NNW 1.5mph /  2.4km/h 7mph /  11.3km/h 59.2% 0.00in /  0mm 341 W/m2
10:04 52.4 °F /  11.3 °C 38.2 °F /  3.4 °C 30.13in /  1020.2hPa North 0.6mph /  1km/h 7mph /  11.3km/h 58.2% 0.00in /  0mm 211 W/m2
10:09 53 °F /  11.7 °C 38.7 °F /  3.7 °C 30.13in /  1020.2hPa ENE 1.4mph /  2.3km/h 7mph /  11.3km/h 58.2% 0.00in /  0mm 406 W/m2
10:14 53.7 °F /  12.1 °C 38.8 °F /  3.8 °C 30.14in /  1020.5hPa NNE 1.1mph /  1.8km/h 10mph /  16.1km/h 56.8% 0.00in /  0mm 517 W/m2
10:19 54.7 °F /  12.6 °C 39 °F /  3.9 °C 30.14in /  1020.5hPa North 1.7mph /  2.7km/h 10mph /  16.1km/h 55.3% 0.00in /  0mm 524 W/m2
10:24 55.7 °F /  13.2 °C 39.6 °F /  4.2 °C 30.14in /  1020.5hPa NNE 0.7mph /  1.1km/h 10mph /  16.1km/h 54.6% 0.00in /  0mm 531 W/m2
10:29 56.6 °F /  13.7 °C 38.9 °F /  3.8 °C 30.14in /  1020.5hPa NE 1.4mph /  2.3km/h 10mph /  16.1km/h 51.4% 0.00in /  0mm 536 W/m2
10:33 57.1 °F /  13.9 °C 38.6 °F /  3.7 °C 30.14in /  1020.5hPa ENE 2.3mph /  3.7km/h 10mph /  16.1km/h 50% 0.00in /  0mm 536 W/m2
10:39 57.8 °F /  14.3 °C 39.2 °F /  4 °C 30.13in /  1020.2hPa NE 0.2mph /  0.3km/h 5mph /  8km/h 49.7% 0.00in /  0mm 515 W/m2
10:44 58.4 °F /  14.7 °C 38.9 °F /  3.8 °C 30.14in /  1020.5hPa NNE 1.5mph /  2.4km/h 8mph /  12.9km/h 48.2% 0.00in /  0mm 550 W/m2
10:49 58.4 °F /  14.7 °C 37.7 °F /  3.2 °C 30.14in /  1020.5hPa NE 1.4mph /  2.3km/h 8mph /  12.9km/h 45.9% 0.00in /  0mm 434 W/m2
10:54 58.1 °F /  14.5 °C 37.4 °F /  3 °C 30.13in /  1020.2hPa NE 1.6mph /  2.6km/h 8mph /  12.9km/h 46% 0.00in /  0mm 380 W/m2
10:59 58 °F /  14.4 °C 37.9 °F /  3.3 °C 30.13in /  1020.2hPa ENE 1.1mph /  1.8km/h 8mph /  12.9km/h 47.1% 0.00in /  0mm 246 W/m2
11:04 58.1 °F /  14.5 °C 37.7 °F /  3.2 °C 30.12in /  1019.9hPa NE 1.5mph /  2.4km/h 8mph /  12.9km/h 46.5% 0.00in /  0mm 547 W/m2
11:09 58.3 °F /  14.6 °C 37.9 °F /  3.3 °C 30.12in /  1019.9hPa North 0.6mph /  1km/h 6mph /  9.7km/h 46.4% 0.00in /  0mm 570 W/m2
11:14 58.8 °F /  14.9 °C 38.8 °F /  3.8 °C 30.12in /  1019.9hPa North 1mph /  1.6km/h 6mph /  9.7km/h 47.4% 0.00in /  0mm 570 W/m2
11:19 58.9 °F /  14.9 °C 38.2 °F /  3.4 °C 30.11in /  1019.5hPa NNW 0.5mph /  0.8km/h 6mph /  9.7km/h 46% 0.00in /  0mm 262 W/m2
11:24 59 °F /  15 °C 37.5 °F /  3.1 °C 30.11in /  1019.5hPa NNW 1.2mph /  1.9km/h 6mph /  9.7km/h 44.6% 0.00in /  0mm 294 W/m2
11:29 59.2 °F /  15.1 °C 37.8 °F /  3.2 °C 30.11in /  1019.5hPa North 0.8mph /  1.3km/h 6mph /  9.7km/h 44.9% 0.00in /  0mm 287 W/m2
11:34 59.4 °F /  15.2 °C 37.7 °F /  3.2 °C 30.11in /  1019.5hPa NE 0.7mph /  1.1km/h 6mph /  9.7km/h 44.3% 0.00in /  0mm 571 W/m2
11:39 59.7 °F /  15.4 °C 37.8 °F /  3.2 °C 30.10in /  1019.2hPa NNW 1.5mph /  2.4km/h 6mph /  9.7km/h 44% 0.00in /  0mm 559 W/m2
11:44 60 °F /  15.6 °C 37.8 °F /  3.2 °C 30.10in /  1019.2hPa NW 0.4mph /  0.6km/h 6mph /  9.7km/h 43.5% 0.00in /  0mm 503 W/m2
11:49 60.3 °F /  15.7 °C 38.3 °F /  3.5 °C 30.10in /  1019.2hPa NNW 0.4mph /  0.6km/h 6mph /  9.7km/h 43.8% 0.00in /  0mm 499 W/m2
11:54 60.6 °F /  15.9 °C 38.8 °F /  3.8 °C 30.10in /  1019.2hPa NW 1.2mph /  1.9km/h 6mph /  9.7km/h 44.3% 0.00in /  0mm 350 W/m2
11:59 61 °F /  16.1 °C 38.7 °F /  3.7 °C 30.10in /  1019.2hPa North 0.9mph /  1.4km/h 6mph /  9.7km/h 43.6% 0.00in /  0mm 267 W/m2
12:00 61.1 °F /  16.2 °C 38.5 °F /  3.6 °C 30.10in /  1019.2hPa NNW 0.7mph /  1.1km/h 6mph /  9.7km/h 43% 0.00in /  0mm 158 W/m2
12:09 61.3 °F /  16.3 °C 39.7 °F /  4.3 °C 30.10in /  1019.2hPa NNW 1.1mph /  1.8km/h 5mph /  8km/h 44.9% 0.00in /  0mm 130 W/m2
12:14 61.5 °F /  16.4 °C 40.1 °F /  4.5 °C 30.10in /  1019.2hPa North 1.2mph /  1.9km/h 7mph /  11.3km/h 45.3% 0.00in /  0mm 459 W/m2
12:19 61.6 °F /  16.4 °C 39.8 °F /  4.3 °C 30.10in /  1019.2hPa ENE 1.5mph /  2.4km/h 9mph /  14.5km/h 44.6% 0.00in /  0mm 550 W/m2
12:24 61.7 °F /  16.5 °C 40.6 °F /  4.8 °C 30.10in /  1019.2hPa NNE 2.2mph /  3.5km/h 10mph /  16.1km/h 45.8% 0.00in /  0mm 322 W/m2
12:29 61.9 °F /  16.6 °C 41.2 °F /  5.1 °C 30.09in /  1018.8hPa NE 1.7mph /  2.7km/h 10mph /  16.1km/h 46.4% 0.00in /  0mm 378 W/m2
12:34 62.1 °F /  16.7 °C 41.6 °F /  5.3 °C 30.09in /  1018.8hPa NNE 1.8mph /  2.9km/h 10mph /  16.1km/h 47.1% 0.00in /  0mm 501 W/m2
12:39 62.2 °F /  16.8 °C 41.6 °F /  5.3 °C 30.09in /  1018.8hPa NE 2.6mph /  4.2km/h 11mph /  17.7km/h 46.7% 0.00in /  0mm 374 W/m2
12:44 62.2 °F /  16.8 °C 41.8 °F /  5.4 °C 30.08in /  1018.5hPa East 0.3mph /  0.5km/h 11mph /  17.7km/h 47.1% 0.00in /  0mm 496 W/m2
12:49 62.4 °F /  16.9 °C 42.6 °F /  5.9 °C 30.09in /  1018.8hPa NNW 2.2mph /  3.5km/h 11mph /  17.7km/h 48.3% 0.00in /  0mm 441 W/m2
12:54 62.6 °F /  17 °C 42.8 °F /  6 °C 30.08in /  1018.5hPa North 0.9mph /  1.4km/h 11mph /  17.7km/h 48.2% 0.00in /  0mm 156 W/m2
12:59 62.8 °F /  17.1 °C 43.1 °F /  6.2 °C 30.08in /  1018.5hPa NE 2.1mph /  3.4km/h 11mph /  17.7km/h 48.5% 0.00in /  0mm 290 W/m2
13:04 62.9 °F /  17.2 °C 43.1 °F /  6.2 °C 30.08in /  1018.5hPa NE 2.2mph /  3.5km/h 11mph /  17.7km/h 48.3% 0.00in /  0mm 306 W/m2
13:09 62.9 °F /  17.2 °C 43.6 °F /  6.4 °C 30.08in /  1018.5hPa NNE 0.6mph /  1km/h 7mph /  11.3km/h 49.2% 0.00in /  0mm 332 W/m2
13:14 63.1 °F /  17.3 °C 43.7 °F /  6.5 °C 30.08in /  1018.5hPa NNE 1.7mph /  2.7km/h 7mph /  11.3km/h 49.1% 0.00in /  0mm 246 W/m2
13:19 63.3 °F /  17.4 °C 43.9 °F /  6.6 °C 30.08in /  1018.5hPa ENE 0.8mph /  1.3km/h 7mph /  11.3km/h 49% 0.00in /  0mm 172 W/m2
13:24 63.5 °F /  17.5 °C 44.2 °F /  6.8 °C 30.08in /  1018.5hPa NE 0.6mph /  1km/h 7mph /  11.3km/h 49.2% 0.00in /  0mm 352 W/m2
13:29 63.8 °F /  17.7 °C 44.3 °F /  6.8 °C 30.08in /  1018.5hPa ENE 1.4mph /  2.3km/h 7mph /  11.3km/h 49% 0.00in /  0mm 352 W/m2
13:34 63.7 °F /  17.6 °C 43.9 °F /  6.6 °C 30.08in /  1018.5hPa ENE 1.7mph /  2.7km/h 7mph /  11.3km/h 48.3% 0.00in /  0mm 462 W/m2
13:39 63.6 °F /  17.6 °C 44.4 °F /  6.9 °C 30.07in /  1018.2hPa NW 1.4mph /  2.3km/h 6mph /  9.7km/h 49.6% 0.00in /  0mm 462 W/m2
13:44 63.6 °F /  17.6 °C 44.6 °F /  7 °C 30.07in /  1018.2hPa NW 0.9mph /  1.4km/h 7mph /  11.3km/h 50% 0.00in /  0mm 156 W/m2
13:49 63.8 °F /  17.7 °C 44.7 °F /  7.1 °C 30.07in /  1018.2hPa NNE 0.5mph /  0.8km/h 7mph /  11.3km/h 49.8% 0.00in /  0mm 432 W/m2
13:54 64.1 °F /  17.8 °C 44.3 °F /  6.8 °C 30.07in /  1018.2hPa NE 2.1mph /  3.4km/h 7mph /  11.3km/h 48.5% 0.00in /  0mm 432 W/m2
13:59 64 °F /  17.8 °C 44.5 °F /  6.9 °C 30.07in /  1018.2hPa NE 1.6mph /  2.6km/h 7mph /  11.3km/h 49% 0.00in /  0mm 295 W/m2
14:04 63.8 °F /  17.7 °C 44.3 °F /  6.8 °C 30.06in /  1017.8hPa ENE 1.3mph /  2.1km/h 7mph /  11.3km/h 49% 0.00in /  0mm 295 W/m2
14:09 63.6 °F /  17.6 °C 44.4 °F /  6.9 °C 30.06in /  1017.8hPa NE 2.3mph /  3.7km/h 7mph /  11.3km/h 49.5% 0.00in /  0mm 67 W/m2
14:14 63.6 °F /  17.6 °C 44.8 °F /  7.1 °C 30.07in /  1018.2hPa ENE 0.1mph /  0.2km/h 7mph /  11.3km/h 50.2% 0.00in /  0mm 156 W/m2
14:19 63.7 °F /  17.6 °C 45 °F /  7.2 °C 30.06in /  1017.8hPa North 0.7mph /  1.1km/h 7mph /  11.3km/h 50.5% 0.00in /  0mm 220 W/m2
14:24 63.7 °F /  17.6 °C 44.7 °F /  7.1 °C 30.06in /  1017.8hPa NE 0.9mph /  1.4km/h 7mph /  11.3km/h 50% 0.00in /  0mm 216 W/m2
14:29 63.5 °F /  17.5 °C 44.7 °F /  7.1 °C 30.06in /  1017.8hPa East 1.1mph /  1.8km/h 7mph /  11.3km/h 50.3% 0.00in /  0mm 274 W/m2
14:34 63.3 °F /  17.4 °C 44.6 °F /  7 °C 30.06in /  1017.8hPa ENE 1.5mph /  2.4km/h 7mph /  11.3km/h 50.5% 0.00in /  0mm 223 W/m2
14:39 63.1 °F /  17.3 °C 44.7 °F /  7.1 °C 30.06in /  1017.8hPa ENE 0.7mph /  1.1km/h 6mph /  9.7km/h 51% 0.00in /  0mm 32 W/m2
14:44 62.9 °F /  17.2 °C 44.5 °F /  6.9 °C 30.06in /  1017.8hPa ENE 1.1mph /  1.8km/h 6mph /  9.7km/h 51% 0.00in /  0mm 30 W/m2
14:49 62.8 °F /  17.1 °C 44.9 °F /  7.2 °C 30.06in /  1017.8hPa NE 0.1mph /  0.2km/h 6mph /  9.7km/h 51.9% 0.00in /  0mm 28 W/m2
14:54 62.8 °F /  17.1 °C 45.2 °F /  7.3 °C 30.06in /  1017.8hPa NE 0.4mph /  0.6km/h 6mph /  9.7km/h 52.6% 0.00in /  0mm 28 W/m2
14:59 62.7 °F /  17.1 °C 45 °F /  7.2 °C 30.06in /  1017.8hPa NNE 0.3mph /  0.5km/h 6mph /  9.7km/h 52.2% 0.00in /  0mm 26 W/m2
15:04 62.6 °F /  17 °C 44.9 °F /  7.2 °C 30.06in /  1017.8hPa Calm   6mph /  9.7km/h 52.2% 0.00in /  0mm 26 W/m2
15:09 62.5 °F /  16.9 °C 45.2 °F /  7.3 °C 30.06in /  1017.8hPa NE 0.4mph /  0.6km/h 3mph /  4.8km/h 53% 0.00in /  0mm 26 W/m2
15:14 62.5 °F /  16.9 °C 44.8 °F /  7.1 °C 30.06in /  1017.8hPa NE 0.7mph /  1.1km/h 4mph /  6.4km/h 52.3% 0.00in /  0mm 25 W/m2
15:19 62.4 °F /  16.9 °C 45.1 °F /  7.3 °C 30.06in /  1017.8hPa Calm   4mph /  6.4km/h 53% 0.00in /  0mm 23 W/m2
15:24 62.3 °F /  16.8 °C 45 °F /  7.2 °C 30.06in /  1017.8hPa NE 0.1mph /  0.2km/h 4mph /  6.4km/h 53% 0.00in /  0mm 23 W/m2
15:29 62.2 °F /  16.8 °C 44.9 °F /  7.2 °C 30.06in /  1017.8hPa NE 0.3mph /  0.5km/h 4mph /  6.4km/h 53% 0.00in /  0mm 21 W/m2
15:34 62.2 °F /  16.8 °C 44.8 °F /  7.1 °C 30.06in /  1017.8hPa NE 0.1mph /  0.2km/h 4mph /  6.4km/h 53% 0.00in /  0mm 21 W/m2
15:39 62.1 °F /  16.7 °C 44.9 °F /  7.2 °C 30.06in /  1017.8hPa Calm   1mph /  1.6km/h 53.4% 0.00in /  0mm 19 W/m2
15:44 62 °F /  16.7 °C 45.1 °F /  7.3 °C 30.06in /  1017.8hPa Calm   1mph /  1.6km/h 54% 0.00in /  0mm 19 W/m2
15:49 61.8 °F /  16.6 °C 45 °F /  7.2 °C 30.06in /  1017.8hPa NE 0.1mph /  0.2km/h 2mph /  3.2km/h 54% 0.00in /  0mm 18 W/m2
15:54 61.7 °F /  16.5 °C 44.9 °F /  7.2 °C 30.06in /  1017.8hPa Calm   2mph /  3.2km/h 54% 0.00in /  0mm 18 W/m2
15:59 61.7 °F /  16.5 °C 45.1 °F /  7.3 °C 30.06in /  1017.8hPa Calm   2mph /  3.2km/h 54.5% 0.00in /  0mm 16 W/m2
16:00 61.6 °F /  16.4 °C 44.8 °F /  7.1 °C 30.06in /  1017.8hPa Calm   2mph /  3.2km/h 54% 0.00in /  0mm 14 W/m2
16:09 61.3 °F /  16.3 °C 45 °F /  7.2 °C 30.06in /  1017.8hPa Calm     55% 0.00in /  0mm 12 W/m2
16:14 61.2 °F /  16.2 °C 45.2 °F /  7.3 °C 30.06in /  1017.8hPa Calm     55.7% 0.00in /  0mm 12 W/m2
16:19 60.9 °F /  16.1 °C 45.1 °F /  7.3 °C 30.06in /  1017.8hPa Calm     55.8% 0.00in /  0mm 11 W/m2
16:24 60.7 °F /  15.9 °C 44.9 °F /  7.2 °C 30.06in /  1017.8hPa Calm     56% 0.00in /  0mm 9 W/m2
16:29 60.4 °F /  15.8 °C 45.1 °F /  7.3 °C 30.06in /  1017.8hPa Calm     57% 0.00in /  0mm 7 W/m2
16:34 60.1 °F /  15.6 °C 44.9 °F /  7.2 °C 30.06in /  1017.8hPa Calm     57% 0.00in /  0mm 5 W/m2
16:39 59.9 °F /  15.5 °C 44.9 °F /  7.2 °C 30.06in /  1017.8hPa Calm     57.7% 0.00in /  0mm 0 W/m2
16:44 59.6 °F /  15.3 °C 45.1 °F /  7.3 °C 30.06in /  1017.8hPa Calm     58.7% 0.00in /  0mm 0 W/m2
16:49 59.4 °F /  15.2 °C 45 °F /  7.2 °C 30.06in /  1017.8hPa Calm     58.9% 0.00in /  0mm 0 W/m2
16:54 59.1 °F /  15.1 °C 45.3 °F /  7.4 °C 30.07in /  1018.2hPa Calm     60.1% 0.00in /  0mm 0 W/m2
16:59 58.8 °F /  14.9 °C 45.5 °F /  7.5 °C 30.07in /  1018.2hPa Calm     61.1% 0.00in /  0mm 0 W/m2
17:04 58.5 °F /  14.7 °C 45.3 °F /  7.4 °C 30.07in /  1018.2hPa Calm     61.4% 0.00in /  0mm 0 W/m2
17:09 58.1 °F /  14.5 °C 45.2 °F /  7.3 °C 30.07in /  1018.2hPa Calm     62% 0.00in /  0mm 0 W/m2
17:14 57.7 °F /  14.3 °C 45 °F /  7.2 °C 30.07in /  1018.2hPa Calm     62.4% 0.00in /  0mm 0 W/m2
17:19 57.4 °F /  14.1 °C 44.9 °F /  7.2 °C 30.07in /  1018.2hPa Calm     63% 0.00in /  0mm 0 W/m2
17:24 57.1 °F /  13.9 °C 44.9 °F /  7.2 °C 30.08in /  1018.5hPa Calm     63.7% 0.00in /  0mm 0 W/m2
17:29 56.8 °F /  13.8 °C 45 °F /  7.2 °C 30.08in /  1018.5hPa Calm     64.5% 0.00in /  0mm 0 W/m2
17:34 56.4 °F /  13.6 °C 45.1 °F /  7.3 °C 30.08in /  1018.5hPa Calm     65.6% 0.00in /  0mm 0 W/m2
17:39 56.1 °F /  13.4 °C 45 °F /  7.2 °C 30.09in /  1018.8hPa Calm     66.4% 0.00in /  0mm 0 W/m2
17:44 55.6 °F /  13.1 °C 45 °F /  7.2 °C 30.09in /  1018.8hPa Calm     67.4% 0.00in /  0mm 0 W/m2
17:49 55.2 °F /  12.9 °C 44.8 °F /  7.1 °C 30.09in /  1018.8hPa Calm     68% 0.00in /  0mm 0 W/m2
17:54 54.7 °F /  12.6 °C 44.7 °F /  7.1 °C 30.09in /  1018.8hPa Calm     68.9% 0.00in /  0mm 0 W/m2
17:59 54.3 °F /  12.4 °C 44.4 °F /  6.9 °C 30.09in /  1018.8hPa Calm     69.2% 0.00in /  0mm 0 W/m2
18:04 53.9 °F /  12.2 °C 44.3 °F /  6.8 °C 30.09in /  1018.8hPa Calm     70% 0.00in /  0mm 0 W/m2
18:09 53.5 °F /  11.9 °C 44.3 °F /  6.8 °C 30.09in /  1018.8hPa Calm     71% 0.00in /  0mm 0 W/m2
18:14 53.2 °F /  11.8 °C 44.3 °F /  6.8 °C 30.09in /  1018.8hPa Calm     71.8% 0.00in /  0mm 0 W/m2
18:19 52.8 °F /  11.6 °C 44.1 °F /  6.7 °C 30.09in /  1018.8hPa Calm     72.2% 0.00in /  0mm 0 W/m2
18:24 52.4 °F /  11.3 °C 44.1 °F /  6.7 °C 30.09in /  1018.8hPa Calm     73% 0.00in /  0mm 0 W/m2
18:29 52.1 °F /  11.2 °C 44 °F /  6.7 °C 30.09in /  1018.8hPa Calm     73.9% 0.00in /  0mm 0 W/m2
18:34 51.8 °F /  11 °C 43.9 °F /  6.6 °C 30.09in /  1018.8hPa Calm     74.1% 0.00in /  0mm 0 W/m2
18:39 51.6 °F /  10.9 °C 43.9 °F /  6.6 °C 30.09in /  1018.8hPa Calm     75% 0.00in /  0mm 0 W/m2
18:44 51.4 °F /  10.8 °C 43.8 °F /  6.6 °C 30.09in /  1018.8hPa Calm     75.1% 0.00in /  0mm 0 W/m2
18:49 51.2 °F /  10.7 °C 43.9 °F /  6.6 °C 30.09in /  1018.8hPa Calm     76% 0.00in /  0mm 0 W/m2
18:54 51 °F /  10.6 °C 43.7 °F /  6.5 °C 30.09in /  1018.8hPa Calm     76% 0.00in /  0mm 0 W/m2
18:59 50.8 °F /  10.4 °C 43.6 °F /  6.4 °C 30.09in /  1018.8hPa Calm     76.2% 0.00in /  0mm 0 W/m2
19:04 50.6 °F /  10.3 °C 43.7 °F /  6.5 °C 30.09in /  1018.8hPa Calm     77% 0.00in /  0mm 0 W/m2
19:09 50.4 °F /  10.2 °C 43.5 °F /  6.4 °C 30.09in /  1018.8hPa Calm     77% 0.00in /  0mm 0 W/m2
19:14 50.2 °F /  10.1 °C 43.5 °F /  6.4 °C 30.09in /  1018.8hPa Calm     77.6% 0.00in /  0mm 0 W/m2
19:19 50.1 °F /  10.1 °C 43.5 °F /  6.4 °C 30.09in /  1018.8hPa Calm     78% 0.00in /  0mm 0 W/m2
19:24 49.8 °F /  9.9 °C 43.5 °F /  6.4 °C 30.10in /  1019.2hPa Calm     78.6% 0.00in /  0mm 0 W/m2
19:29 49.6 °F /  9.8 °C 43.4 °F /  6.3 °C 30.10in /  1019.2hPa Calm     79% 0.00in /  0mm 0 W/m2
19:34 49.4 °F /  9.7 °C 43.2 °F /  6.2 °C 30.10in /  1019.2hPa Calm     79% 0.00in /  0mm 0 W/m2
19:39 49.2 °F /  9.6 °C 43.3 °F /  6.3 °C 30.09in /  1018.8hPa Calm     80% 0.00in /  0mm 0 W/m2
19:44 49.1 °F /  9.5 °C 43.2 °F /  6.2 °C 30.09in /  1018.8hPa Calm     80% 0.00in /  0mm 0 W/m2
19:49 49 °F /  9.4 °C 43.1 °F /  6.2 °C 30.09in /  1018.8hPa Calm     80% 0.00in /  0mm 0 W/m2
19:54 48.9 °F /  9.4 °C 43 °F /  6.1 °C 30.09in /  1018.8hPa Calm     80.1% 0.00in /  0mm 0 W/m2
19:59 48.8 °F /  9.3 °C 43.1 °F /  6.2 °C 30.09in /  1018.8hPa Calm     80.8% 0.00in /  0mm 0 W/m2
20:09 48.5 °F /  9.2 °C 42.9 °F /  6.1 °C 30.09in /  1018.8hPa Calm     81% 0.00in /  0mm 0 W/m2
20:14 48.3 °F /  9.1 °C 42.8 °F /  6 °C 30.09in /  1018.8hPa Calm     81.2% 0.00in /  0mm 0 W/m2
20:19 48.2 °F /  9 °C 43 °F /  6.1 °C 30.09in /  1018.8hPa Calm     82% 0.00in /  0mm 0 W/m2
20:24 48 °F /  8.9 °C 42.8 °F /  6 °C 30.10in /  1019.2hPa Calm     82% 0.00in /  0mm 0 W/m2
20:29 47.8 °F /  8.8 °C 42.9 °F /  6.1 °C 30.09in /  1018.8hPa Calm     82.8% 0.00in /  0mm 0 W/m2
20:34 47.8 °F /  8.8 °C 43 °F /  6.1 °C 30.09in /  1018.8hPa Calm     83.3% 0.00in /  0mm 0 W/m2
20:39 47.7 °F /  8.7 °C 42.8 °F /  6 °C 30.09in /  1018.8hPa Calm     83% 0.00in /  0mm 0 W/m2
20:44 47.6 °F /  8.7 °C 42.7 °F /  5.9 °C 30.09in /  1018.8hPa Calm     83% 0.00in /  0mm 0 W/m2
20:49 47.5 °F /  8.6 °C 42.6 °F /  5.9 °C 30.09in /  1018.8hPa Calm     83% 0.00in /  0mm 0 W/m2
20:54 47.4 °F /  8.6 °C 42.7 °F /  5.9 °C 30.09in /  1018.8hPa Calm     83.7% 0.00in /  0mm 0 W/m2
20:59 47.3 °F /  8.5 °C 42.7 °F /  5.9 °C 30.09in /  1018.8hPa Calm     84% 0.00in /  0mm 0 W/m2
21:04 47.2 °F /  8.4 °C 42.6 °F /  5.9 °C 30.10in /  1019.2hPa Calm     84% 0.00in /  0mm 0 W/m2
21:09 47.1 °F /  8.4 °C 42.6 °F /  5.9 °C 30.10in /  1019.2hPa Calm     84.3% 0.00in /  0mm 0 W/m2
21:14 46.9 °F /  8.3 °C 42.7 °F /  5.9 °C 30.09in /  1018.8hPa Calm     85% 0.00in /  0mm 0 W/m2
21:19 46.9 °F /  8.3 °C 42.6 °F /  5.9 °C 30.09in /  1018.8hPa Calm     85% 0.00in /  0mm 0 W/m2
21:24 47 °F /  8.3 °C 42.8 °F /  6 °C 30.09in /  1018.8hPa Calm     85.1% 0.00in /  0mm 0 W/m2
21:29 47 °F /  8.3 °C 43 °F /  6.1 °C 30.09in /  1018.8hPa Calm     85.7% 0.00in /  0mm 0 W/m2
21:34 47.1 °F /  8.4 °C 42.9 °F /  6.1 °C 30.09in /  1018.8hPa Calm     85.2% 0.00in /  0mm 0 W/m2
21:39 47.1 °F /  8.4 °C 42.8 °F /  6 °C 30.09in /  1018.8hPa Calm     85% 0.00in /  0mm 0 W/m2
21:44 46.9 °F /  8.3 °C 42.7 °F /  5.9 °C 30.09in /  1018.8hPa Calm     85% 0.00in /  0mm 0 W/m2
21:49 46.8 °F /  8.2 °C 42.6 °F /  5.9 °C 30.09in /  1018.8hPa Calm     85% 0.00in /  0mm 0 W/m2
21:54 46.7 °F /  8.2 °C 42.4 °F /  5.8 °C 30.09in /  1018.8hPa Calm     85% 0.00in /  0mm 0 W/m2
21:59 46.5 °F /  8.1 °C 42.3 °F /  5.7 °C 30.09in /  1018.8hPa Calm     85% 0.00in /  0mm 0 W/m2
22:04 46.4 °F /  8 °C 42.4 °F /  5.8 °C 30.09in /  1018.8hPa Calm     85.8% 0.00in /  0mm 0 W/m2
22:09 46.6 °F /  8.1 °C 42.7 °F /  5.9 °C 30.10in /  1019.2hPa Calm     86% 0.00in /  0mm 0 W/m2
22:14 46.8 °F /  8.2 °C 42.8 °F /  6 °C 30.10in /  1019.2hPa Calm     86% 0.00in /  0mm 0 W/m2
22:19 46.6 °F /  8.1 °C 42.4 °F /  5.8 °C 30.10in /  1019.2hPa Calm     85.1% 0.00in /  0mm 0 W/m2
22:24 46.4 °F /  8 °C 42.1 °F /  5.6 °C 30.10in /  1019.2hPa Calm     85% 0.00in /  0mm 0 W/m2
22:29 46.2 °F /  7.9 °C 41.9 °F /  5.5 °C 30.10in /  1019.2hPa Calm     85% 0.00in /  0mm 0 W/m2
22:34 46.1 °F /  7.8 °C 41.9 °F /  5.5 °C 30.10in /  1019.2hPa Calm     85.2% 0.00in /  0mm 0 W/m2
22:39 45.9 °F /  7.7 °C 42 °F /  5.6 °C 30.09in /  1018.8hPa Calm     86% 0.00in /  0mm 0 W/m2
22:44 45.7 °F /  7.6 °C 41.8 °F /  5.4 °C 30.09in /  1018.8hPa Calm     86% 0.00in /  0mm 0 W/m2
22:49 45.5 °F /  7.5 °C 41.6 °F /  5.3 °C 30.09in /  1018.8hPa Calm     86% 0.00in /  0mm 0 W/m2
22:54 45.3 °F /  7.4 °C 41.4 °F /  5.2 °C 30.09in /  1018.8hPa Calm     86% 0.00in /  0mm 0 W/m2
22:59 45.1 °F /  7.3 °C 41.2 °F /  5.1 °C 30.09in /  1018.8hPa Calm     86% 0.00in /  0mm 0 W/m2
23:00 45 °F /  7.2 °C 41.1 °F /  5.1 °C 30.09in /  1018.8hPa Calm     86% 0.00in /  0mm 0 W/m2
23:09 44.6 °F /  7 °C 40.9 °F /  4.9 °C 30.09in /  1018.8hPa Calm     86.6% 0.00in /  0mm 0 W/m2
23:14 44.4 °F /  6.9 °C 40.8 °F /  4.9 °C 30.09in /  1018.8hPa Calm     87% 0.00in /  0mm 0 W/m2
23:19 44.3 °F /  6.8 °C 40.7 °F /  4.8 °C 30.09in /  1018.8hPa Calm     87.1% 0.00in /  0mm 0 W/m2
23:24 44.2 °F /  6.8 °C 40.9 °F /  4.9 °C 30.09in /  1018.8hPa Calm     88% 0.00in /  0mm 0 W/m2
23:29 44.1 °F /  6.7 °C 40.8 °F /  4.9 °C 30.09in /  1018.8hPa Calm     88% 0.00in /  0mm 0 W/m2
23:34 44.1 °F /  6.7 °C 40.9 °F /  4.9 °C 30.09in /  1018.8hPa Calm     88.5% 0.00in /  0mm 0 W/m2
23:39 44 °F /  6.7 °C 41 °F /  5 °C 30.09in /  1018.8hPa Calm     89% 0.00in /  0mm 0 W/m2
23:44 44 °F /  6.7 °C 41 °F /  5 °C 30.08in /  1018.5hPa Calm     89% 0.00in /  0mm 0 W/m2
23:49 44 °F /  6.7 °C 41 °F /  5 °C 30.08in /  1018.5hPa Calm     89% 0.00in /  0mm 0 W/m2
23:54 43.9 °F /  6.6 °C 40.9 °F /  4.9 °C 30.08in /  1018.5hPa Calm     89% 0.00in /  0mm 0 W/m2
23:59 43.7 °F /  6.5 °C 40.7 °F /  4.8 °C 30.08in /  1018.5hPa Calm     89% 0.00in /  0mm 0 W/m2
Hartford County Weather
Compliments of Weather Underground - 4 mb